createdAt,value
2018-06-14T00:03:06.005Z,2.30
2018-06-14T00:07:56.899Z,2.07
2018-06-14T00:12:47.814Z,2.57
2018-06-14T00:17:38.737Z,2.10
2018-06-14T00:22:29.649Z,1.83
2018-06-14T00:27:20.552Z,1.80
2018-06-14T00:32:12.211Z,1.63
2018-06-14T00:37:03.134Z,1.70
2018-06-14T00:41:54.062Z,1.80
2018-06-14T00:46:44.986Z,1.37
2018-06-14T00:51:35.903Z,1.70
2018-06-14T00:56:26.808Z,1.83
2018-06-14T01:01:17.703Z,2.03
2018-06-14T01:06:09.352Z,1.70
2018-06-14T01:11:00.251Z,1.60
2018-06-14T01:15:51.901Z,2.00
2018-06-14T01:20:42.792Z,2.10
2018-06-14T01:25:33.688Z,1.50
2018-06-14T01:30:24.603Z,1.87
2018-06-14T01:35:15.488Z,2.10
2018-06-14T01:40:06.381Z,1.80
2018-06-14T01:44:58.029Z,1.60
2018-06-14T01:49:48.928Z,1.60
2018-06-14T01:54:40.580Z,1.63
2018-06-14T01:59:31.488Z,2.03
2018-06-14T02:04:23.115Z,2.03
2018-06-14T02:09:14.752Z,2.00
2018-06-14T02:14:06.422Z,1.60
2018-06-14T02:18:57.351Z,1.70
2018-06-14T02:23:48.261Z,1.70
2018-06-14T02:28:40.461Z,2.00
2018-06-14T02:33:31.371Z,1.50
2018-06-14T02:38:22.297Z,1.83
2018-06-14T02:43:13.216Z,1.77
2018-06-14T02:48:05.595Z,1.87
2018-06-14T02:52:57.253Z,1.87
2018-06-14T02:57:48.163Z,2.07
2018-06-14T03:02:39.091Z,1.77
2018-06-14T03:07:30.005Z,1.77
2018-06-14T03:12:20.921Z,1.90
2018-06-14T03:17:11.817Z,2.30
2018-06-14T03:22:03.445Z,2.30
2018-06-14T03:26:55.067Z,2.00
2018-06-14T03:31:45.960Z,1.90
2018-06-14T03:36:36.939Z,2.40
2018-06-14T03:41:27.830Z,2.10
2018-06-14T03:46:19.494Z,2.00
2018-06-14T03:51:10.379Z,2.13
2018-06-14T03:56:01.276Z,2.10
2018-06-14T04:00:52.165Z,2.10
2018-06-14T04:05:43.082Z,2.57
2018-06-14T04:10:33.999Z,2.80
2018-06-14T04:15:24.901Z,2.60
2018-06-14T04:20:15.847Z,2.10
2018-06-14T04:25:06.747Z,2.13
2018-06-14T04:29:57.674Z,2.53
2018-06-14T04:34:48.627Z,2.30
2018-06-14T04:39:39.528Z,2.50
2018-06-14T04:44:30.431Z,2.60
2018-06-14T04:49:21.355Z,2.60
2018-06-14T04:54:12.248Z,2.90
2018-06-14T04:59:03.139Z,3.10
2018-06-14T05:03:54.792Z,3.37
2018-06-14T05:08:46.449Z,3.37
2018-06-14T05:13:37.409Z,2.60
2018-06-14T05:18:28.288Z,2.87
2018-06-14T05:23:19.190Z,2.70
2018-06-14T05:28:10.097Z,2.60
2018-06-14T05:33:00.979Z,2.43
2018-06-14T05:37:51.902Z,2.13
2018-06-14T05:42:42.781Z,2.30
2018-06-14T05:47:33.659Z,2.30
2018-06-14T05:52:24.535Z,2.43
2018-06-14T05:57:15.441Z,2.60
2018-06-14T06:02:06.332Z,2.40
2018-06-14T06:06:57.991Z,2.33
2018-06-14T06:11:48.935Z,2.50
2018-06-14T06:16:39.877Z,2.20
2018-06-14T06:21:30.813Z,2.40
2018-06-14T06:26:22.503Z,2.23
2018-06-14T06:31:13.395Z,2.10
2018-06-14T06:36:04.300Z,2.30
2018-06-14T06:40:55.944Z,2.40
2018-06-14T06:45:46.869Z,2.27
2018-06-14T06:50:37.780Z,2.30
2018-06-14T06:55:28.685Z,2.30
2018-06-14T07:00:19.595Z,1.87
2018-06-14T07:05:11.279Z,1.97
2018-06-14T07:10:02.192Z,2.10
2018-06-14T07:14:53.096Z,1.60
2018-06-14T07:19:43.990Z,1.87
2018-06-14T07:24:35.650Z,1.70
2018-06-14T07:29:26.580Z,1.53
2018-06-14T07:34:17.493Z,1.60
2018-06-14T07:39:08.416Z,1.70
2018-06-14T07:43:59.316Z,1.40
2018-06-14T07:48:50.282Z,1.70
2018-06-14T07:53:41.248Z,2.00
2018-06-14T07:58:32.901Z,2.10
2018-06-14T08:03:23.872Z,1.93
2018-06-14T08:08:14.808Z,2.13
2018-06-14T08:13:06.435Z,1.73
2018-06-14T08:17:58.105Z,1.43
2018-06-14T08:22:49.003Z,1.60
2018-06-14T08:27:40.682Z,1.63
2018-06-14T08:32:31.637Z,2.00
2018-06-14T08:37:22.543Z,1.80
2018-06-14T08:42:13.470Z,1.60
2018-06-14T08:47:05.120Z,1.70
2018-06-14T08:51:56.767Z,1.70
2018-06-14T08:56:48.437Z,1.63
2018-06-14T09:01:39.349Z,1.50
2018-06-14T09:06:30.269Z,1.90
2018-06-14T09:11:21.155Z,1.57
2018-06-14T09:16:12.811Z,1.73
2018-06-14T09:21:03.713Z,1.50
2018-06-14T09:25:55.351Z,1.60
2018-06-14T09:30:47.004Z,1.50
2018-06-14T09:35:37.905Z,1.47
2018-06-14T09:40:29.536Z,1.60
2018-06-14T09:45:21.192Z,1.50
2018-06-14T09:50:12.076Z,1.83
2018-06-14T09:55:02.998Z,1.83
2018-06-14T09:59:54.618Z,1.73
2018-06-14T10:04:45.508Z,1.90
2018-06-14T10:09:36.397Z,1.87
2018-06-14T10:14:27.296Z,2.00
2018-06-14T10:19:18.969Z,1.87
2018-06-14T10:24:09.851Z,2.10
2018-06-14T10:29:01.486Z,2.30
2018-06-14T10:33:53.128Z,1.97
2018-06-14T10:38:44.012Z,1.73
2018-06-14T10:43:34.984Z,1.90
2018-06-14T10:48:25.812Z,2.30
2018-06-14T10:53:16.695Z,2.70
2018-06-14T10:58:08.319Z,2.27
2018-06-14T11:02:59.999Z,2.30
2018-06-14T11:07:50.933Z,1.90
2018-06-14T11:12:41.832Z,2.00
2018-06-14T11:17:32.732Z,2.20
2018-06-14T11:22:23.631Z,1.73
2018-06-14T11:27:15.271Z,2.03
2018-06-14T11:32:06.918Z,1.80
2018-06-14T11:36:57.829Z,2.10
2018-06-14T11:41:49.471Z,2.00
2018-06-14T11:46:40.381Z,2.50
2018-06-14T11:51:32.039Z,2.20
2018-06-14T11:56:22.965Z,2.47
2018-06-14T12:01:13.933Z,2.20
2018-06-14T12:06:04.795Z,2.07
2018-06-14T12:10:55.695Z,1.93
2018-06-14T12:15:46.596Z,2.67
2018-06-14T12:20:38.248Z,2.40
2018-06-14T12:25:29.144Z,2.20
2018-06-14T12:30:20.773Z,1.73
2018-06-14T12:35:11.687Z,1.97
2018-06-14T12:40:02.577Z,1.93
2018-06-14T12:44:53.484Z,2.23
2018-06-14T12:49:44.384Z,2.37
2018-06-14T12:54:35.272Z,1.97
2018-06-14T12:59:26.914Z,1.93
2018-06-14T13:04:18.593Z,2.10
2018-06-14T13:09:09.513Z,2.27
2018-06-14T13:14:00.433Z,2.00
2018-06-14T13:18:51.343Z,2.20
2018-06-14T13:23:42.301Z,2.00
2018-06-14T13:28:33.217Z,1.90
2018-06-14T13:33:24.155Z,2.17
2018-06-14T13:38:15.813Z,1.90
2018-06-14T13:43:06.711Z,2.97
2018-06-14T13:47:58.487Z,2.80
2018-06-14T13:52:49.402Z,2.50
2018-06-14T13:57:40.325Z,2.40
2018-06-14T14:02:31.276Z,2.63
2018-06-14T14:07:22.321Z,2.37
2018-06-14T14:12:13.973Z,2.57
2018-06-14T14:17:05.617Z,2.30
2018-06-14T14:21:56.526Z,2.90
2018-06-14T14:26:48.249Z,3.00
2018-06-14T14:31:39.935Z,2.70
2018-06-14T14:36:30.821Z,2.50
2018-06-14T14:41:22.449Z,2.80
2018-06-14T14:46:14.107Z,2.10
2018-06-14T14:51:04.996Z,2.57
2018-06-14T14:55:56.628Z,2.30
2018-06-14T15:00:48.280Z,2.17
2018-06-14T15:05:39.945Z,2.30
2018-06-14T15:10:30.839Z,2.47
2018-06-14T15:15:22.463Z,2.47
2018-06-14T15:20:14.164Z,2.33
2018-06-14T15:25:05.078Z,2.40
2018-06-14T15:29:55.978Z,2.07
2018-06-14T15:34:46.874Z,2.53
2018-06-14T15:39:37.771Z,2.60
2018-06-14T15:44:29.413Z,2.40
2018-06-14T15:49:21.057Z,2.20
2018-06-14T15:54:11.966Z,2.23
2018-06-14T15:59:03.581Z,2.47
2018-06-14T16:03:54.470Z,1.87
2018-06-14T16:08:45.359Z,2.20
2018-06-14T16:13:36.258Z,2.00
2018-06-14T16:18:27.179Z,2.23
2018-06-14T16:23:18.098Z,2.27
2018-06-14T16:28:08.989Z,2.00
2018-06-14T16:32:59.874Z,2.47
2018-06-14T16:37:50.773Z,2.10
2018-06-14T16:42:41.692Z,2.23
2018-06-14T16:47:32.591Z,2.03
2018-06-14T16:52:23.477Z,2.13
2018-06-14T16:57:15.117Z,1.97
2018-06-14T17:02:06.833Z,2.20
2018-06-14T17:06:57.780Z,2.20
2018-06-14T17:11:49.429Z,2.20
2018-06-14T17:16:41.069Z,2.00
2018-06-14T17:21:31.966Z,2.10
2018-06-14T17:26:23.596Z,2.33
2018-06-14T17:31:15.239Z,2.00
2018-06-14T17:36:06.897Z,2.40
2018-06-14T17:40:58.582Z,2.10
2018-06-14T17:45:49.504Z,2.13
2018-06-14T17:55:38.171Z,2.30
2018-06-14T18:00:29.264Z,2.37
2018-06-14T18:05:20.151Z,2.97
2018-06-14T18:10:11.785Z,2.10
2018-06-14T18:15:02.688Z,2.00
2018-06-14T18:19:53.566Z,1.90
2018-06-14T18:24:44.471Z,2.20
2018-06-14T18:29:35.416Z,2.20
2018-06-14T18:34:26.276Z,2.40
2018-06-14T18:39:17.182Z,1.97
2018-06-14T18:44:08.059Z,2.60
2018-06-14T18:48:58.942Z,2.47
2018-06-14T18:53:50.575Z,2.40
2018-06-14T18:58:41.513Z,2.60
2018-06-14T19:03:33.153Z,2.10
2018-06-14T19:08:24.808Z,2.47
2018-06-14T19:13:15.723Z,2.70
2018-06-14T19:18:06.633Z,2.83
2018-06-14T19:22:57.536Z,2.73
2018-06-14T19:27:49.192Z,2.73
2018-06-14T19:32:40.104Z,2.53
2018-06-14T19:37:31.035Z,2.97
2018-06-14T19:42:21.965Z,2.97
2018-06-14T19:47:12.868Z,2.90
2018-06-14T19:52:03.788Z,2.53
2018-06-14T19:56:54.691Z,2.97
2018-06-14T20:01:46.427Z,2.80
2018-06-14T20:06:38.132Z,2.73
2018-06-14T20:11:29.053Z,2.53
2018-06-14T20:16:21.483Z,2.30
2018-06-14T20:21:12.418Z,2.97
2018-06-14T20:26:03.467Z,2.70
2018-06-14T20:30:55.120Z,2.60
2018-06-14T20:35:46.017Z,3.00
2018-06-14T20:40:37.733Z,3.20
2018-06-14T20:45:28.654Z,2.80
2018-06-14T20:50:21.067Z,2.67
2018-06-14T20:55:11.951Z,3.30
2018-06-14T21:00:03.592Z,2.40
2018-06-14T21:04:55.250Z,3.10
2018-06-14T21:09:46.221Z,3.87
2018-06-14T21:14:37.326Z,3.30
2018-06-14T21:19:28.241Z,3.07
2018-06-14T21:24:19.262Z,3.00
2018-06-14T21:29:10.186Z,3.57
2018-06-14T21:34:01.090Z,3.17
2018-06-14T21:38:51.983Z,3.93
2018-06-14T21:43:42.880Z,3.80
2018-06-14T21:48:33.798Z,4.30
2018-06-14T21:53:25.445Z,4.13
2018-06-14T21:58:16.347Z,3.70
2018-06-14T22:03:07.989Z,3.40
2018-06-14T22:07:59.658Z,3.70
2018-06-14T22:12:50.609Z,3.50
2018-06-14T22:17:41.533Z,3.30
2018-06-14T22:22:32.424Z,3.33
2018-06-14T22:27:23.347Z,3.00
2018-06-14T22:32:14.219Z,3.37
2018-06-14T22:37:05.870Z,3.20
2018-06-14T22:41:56.755Z,3.43
2018-06-14T22:46:47.635Z,3.60
2018-06-14T22:51:38.524Z,3.00
2018-06-14T22:56:29.686Z,3.47
2018-06-14T23:01:21.320Z,3.30
2018-06-14T23:06:12.237Z,3.23
2018-06-14T23:11:15.552Z,3.27
2018-06-14T23:16:06.461Z,3.33
2018-06-14T23:20:57.351Z,2.97
2018-06-14T23:25:48.253Z,2.80
2018-06-14T23:30:39.898Z,3.50
2018-06-14T23:35:30.778Z,3.07
2018-06-14T23:40:21.680Z,2.90
2018-06-14T23:45:12.572Z,3.20
2018-06-14T23:50:03.516Z,3.87
2018-06-14T23:54:54.399Z,2.70
2018-06-14T23:59:45.299Z,3.27
